createdAt,value
2022-11-25T00:01:22.891Z,97646.38
2022-11-25T00:03:52.246Z,97658.44
2022-11-25T00:06:23.896Z,97679.22
2022-11-25T00:08:54.866Z,97679.16
2022-11-25T00:11:23.050Z,97676.56
2022-11-25T00:13:51.474Z,97631.56
2022-11-25T00:16:22.066Z,97676.56
2022-11-25T00:18:51.984Z,97669.66
2022-11-25T00:21:23.581Z,97668.81
2022-11-25T00:23:53.683Z,97678.34
2022-11-25T00:26:23.502Z,97671.44
2022-11-25T00:28:52.339Z,97675.72
2022-11-25T00:31:22.439Z,97683.50
2022-11-25T00:33:51.155Z,97676.59
2022-11-25T00:36:23.422Z,97679.25
2022-11-25T00:38:54.929Z,97684.31
2022-11-25T00:41:40.955Z,97581.38
2022-11-25T00:44:28.547Z,97693.66
2022-11-25T00:46:56.809Z,97699.75
2022-11-25T00:49:25.251Z,97697.94
2022-11-25T00:51:54.859Z,97694.50
2022-11-25T00:54:23.327Z,97694.50
2022-11-25T00:56:51.470Z,97693.59
2022-11-25T00:59:19.916Z,97690.25
2022-11-25T01:01:48.433Z,97687.75
2022-11-25T01:04:17.319Z,97681.50
2022-11-25T01:06:45.957Z,97660.94
2022-11-25T01:09:16.004Z,97694.56
2022-11-25T01:11:44.151Z,97613.34
2022-11-25T01:14:12.751Z,97680.72
2022-11-25T01:16:41.037Z,97669.50
2022-11-25T01:19:09.486Z,97672.09
2022-11-25T01:21:37.689Z,97619.31
2022-11-25T01:24:07.469Z,97680.66
2022-11-25T01:26:37.581Z,97657.34
2022-11-25T01:29:07.401Z,97354.19
2022-11-25T01:31:37.482Z,97691.78
2022-11-25T01:34:08.049Z,97687.34
2022-11-25T01:36:36.438Z,97681.31
2022-11-25T01:39:06.023Z,97681.31
2022-11-25T01:41:37.194Z,97657.97
2022-11-25T01:44:07.762Z,97696.84
2022-11-25T01:46:59.679Z,97701.19
2022-11-25T01:49:38.104Z,97699.44
2022-11-25T01:52:12.176Z,97707.00
2022-11-25T01:54:45.323Z,97695.78
2022-11-25T01:57:18.865Z,97711.28
2022-11-25T01:59:51.448Z,97536.63
2022-11-25T02:02:21.940Z,97717.34
2022-11-25T02:04:50.773Z,97648.13
2022-11-25T02:07:26.471Z,97714.72
2022-11-25T02:09:57.071Z,97717.16
2022-11-25T02:12:28.053Z,97709.31
2022-11-25T02:14:58.257Z,97718.06
2022-11-25T02:17:26.743Z,97727.56
2022-11-25T02:20:01.089Z,97725.91
2022-11-25T02:22:40.501Z,97713.81
2022-11-25T02:25:18.568Z,97729.34
2022-11-25T02:27:49.099Z,97706.91
2022-11-25T02:30:17.314Z,97731.13
2022-11-25T02:32:45.967Z,97715.47
2022-11-25T02:35:29.633Z,97741.34
2022-11-25T02:38:02.500Z,97739.63
2022-11-25T02:40:32.324Z,97744.78
2022-11-25T02:43:01.763Z,97756.03
2022-11-25T02:45:38.704Z,97749.13
2022-11-25T02:48:07.064Z,97719.75
2022-11-25T02:50:35.194Z,97738.63
2022-11-25T02:53:03.347Z,97683.19
2022-11-25T02:55:32.938Z,97730.75
2022-11-25T02:58:01.204Z,97756.75
2022-11-25T03:00:29.333Z,97724.00
2022-11-25T03:02:57.478Z,97749.06
2022-11-25T03:05:25.909Z,97755.84
2022-11-25T03:07:54.113Z,97734.13
2022-11-25T03:10:22.559Z,97742.75
2022-11-25T03:12:52.314Z,97757.50
2022-11-25T03:15:21.412Z,97768.81
2022-11-25T03:17:49.683Z,97761.00
2022-11-25T03:20:18.143Z,97767.81
2022-11-25T03:22:46.538Z,97771.25
2022-11-25T03:25:16.088Z,97771.31
2022-11-25T03:27:44.609Z,97753.09
2022-11-25T03:30:16.491Z,97775.59
2022-11-25T03:32:44.751Z,97770.47
2022-11-25T03:35:13.197Z,97767.00
2022-11-25T03:37:41.702Z,97779.88
2022-11-25T03:40:12.228Z,97778.22
2022-11-25T03:42:41.106Z,97780.78
2022-11-25T03:45:13.020Z,97782.41
2022-11-25T03:47:42.714Z,97781.50
2022-11-25T03:50:13.089Z,97781.38
2022-11-25T03:52:41.699Z,97779.66
2022-11-25T03:55:12.704Z,97784.88
2022-11-25T03:57:40.833Z,97782.31
2022-11-25T04:00:10.174Z,97794.41
2022-11-25T04:02:38.384Z,97789.31
2022-11-25T04:05:08.859Z,97790.88
2022-11-25T04:07:37.250Z,97780.50
2022-11-25T04:10:06.086Z,97787.44
2022-11-25T04:12:50.720Z,97780.50
2022-11-25T04:15:19.888Z,97776.97
2022-11-25T04:17:48.023Z,97701.56
2022-11-25T04:20:17.808Z,97784.72
2022-11-25T04:22:45.918Z,97790.72
2022-11-25T04:25:14.220Z,97789.88
2022-11-25T04:27:42.385Z,97780.41
2022-11-25T04:30:11.744Z,97764.03
2022-11-25T04:32:40.437Z,97697.28
2022-11-25T04:35:09.169Z,97735.34
2022-11-25T04:37:38.799Z,97768.31
2022-11-25T04:40:08.511Z,97764.81
2022-11-25T04:42:37.999Z,97770.81
2022-11-25T04:45:22.856Z,97767.34
2022-11-25T04:47:51.867Z,97769.94
2022-11-25T04:50:22.766Z,97769.03
2022-11-25T04:52:52.399Z,97729.25
2022-11-25T04:55:20.560Z,97774.25
2022-11-25T04:57:48.839Z,97771.69
2022-11-25T05:00:16.687Z,97773.34
2022-11-25T05:02:45.058Z,97777.69
2022-11-25T05:05:13.366Z,97771.69
2022-11-25T05:07:41.773Z,97769.97
2022-11-25T05:10:11.669Z,97763.00
2022-11-25T05:12:39.984Z,97762.06
2022-11-25T05:15:09.244Z,97719.47
2022-11-25T05:17:39.369Z,97768.00
2022-11-25T05:20:08.873Z,97774.03
2022-11-25T05:22:37.239Z,97769.78
2022-11-25T05:25:06.933Z,97756.81
2022-11-25T05:27:36.624Z,97748.81
2022-11-25T05:30:06.412Z,97782.53
2022-11-25T05:32:34.517Z,97764.44
2022-11-25T05:35:02.718Z,97789.56
2022-11-25T05:37:33.447Z,97690.78
2022-11-25T05:40:01.579Z,97793.84
2022-11-25T05:42:30.619Z,97798.13
2022-11-25T05:45:01.799Z,97807.53
2022-11-25T05:47:30.094Z,97788.56
2022-11-25T05:49:58.320Z,97812.75
2022-11-25T05:52:26.441Z,97823.06
2022-11-25T05:54:57.417Z,97828.16
2022-11-25T05:57:25.873Z,97827.28
2022-11-25T05:59:53.951Z,97748.41
2022-11-25T06:02:23.643Z,97848.88
2022-11-25T06:04:51.813Z,97846.31
2022-11-25T06:07:20.059Z,97845.50
2022-11-25T06:09:48.251Z,97849.81
2022-11-25T06:12:16.784Z,97828.16
2022-11-25T06:14:45.024Z,97849.81
2022-11-25T06:17:13.218Z,97848.09
2022-11-25T06:19:42.843Z,97849.72
2022-11-25T06:22:11.018Z,97832.38
2022-11-25T06:24:39.164Z,97854.03
2022-11-25T06:27:07.353Z,97850.63
2022-11-25T06:29:35.914Z,97852.38
2022-11-25T06:32:04.486Z,97858.44
2022-11-25T06:34:32.975Z,97854.09
2022-11-25T06:37:02.633Z,97857.72
2022-11-25T06:39:30.829Z,97853.44
2022-11-25T06:41:58.909Z,97863.50
2022-11-25T06:44:27.120Z,97836.81
2022-11-25T06:46:55.327Z,97857.66
2022-11-25T06:49:23.473Z,97860.22
2022-11-25T06:51:52.207Z,97856.88
2022-11-25T06:54:21.899Z,97811.03
2022-11-25T06:56:53.805Z,97864.78
2022-11-25T06:59:21.981Z,97871.84
2022-11-25T07:01:51.123Z,97875.44
2022-11-25T07:04:19.410Z,97869.56
2022-11-25T07:06:47.606Z,97878.31
2022-11-25T07:09:15.830Z,97801.44
2022-11-25T07:11:45.495Z,97886.88
2022-11-25T07:14:15.139Z,97895.91
2022-11-25T07:16:45.055Z,97878.63
2022-11-25T07:19:14.476Z,97888.94
2022-11-25T07:21:43.549Z,97890.63
2022-11-25T07:24:13.124Z,97906.22
2022-11-25T07:26:43.164Z,97908.00
2022-11-25T07:29:52.002Z,97882.97
2022-11-25T07:32:10.044Z,97909.75
2022-11-25T07:34:38.608Z,97905.53
2022-11-25T07:37:07.000Z,97887.38
2022-11-25T07:39:35.543Z,97897.81
2022-11-25T07:42:03.893Z,97902.19
2022-11-25T07:44:33.569Z,97907.38
2022-11-25T07:47:01.785Z,97899.69
2022-11-25T07:49:30.025Z,97893.69
2022-11-25T07:52:00.712Z,97911.03
2022-11-25T07:54:28.926Z,97896.41
2022-11-25T07:56:57.164Z,97903.34
2022-11-25T07:59:25.575Z,97902.47
2022-11-25T08:01:56.717Z,97900.69
2022-11-25T08:04:25.009Z,97901.59
2022-11-25T08:06:55.029Z,97892.94
2022-11-25T08:09:25.390Z,97901.59
2022-11-25T08:11:53.861Z,97904.22
2022-11-25T08:14:22.017Z,97888.66
2022-11-25T08:16:50.231Z,97906.81
2022-11-25T08:19:20.166Z,97885.19
2022-11-25T08:21:48.981Z,97884.34
2022-11-25T08:24:19.375Z,97906.84
2022-11-25T08:26:48.052Z,97893.84
2022-11-25T08:29:17.513Z,97889.53
2022-11-25T08:31:47.489Z,97901.63
2022-11-25T08:34:20.683Z,97912.88
2022-11-25T08:36:49.213Z,97899.03
2022-11-25T08:39:44.163Z,97902.47
2022-11-25T08:42:07.428Z,97909.44
2022-11-25T08:44:36.015Z,97913.72
2022-11-25T08:47:04.179Z,97911.97
2022-11-25T08:49:40.452Z,97911.09
2022-11-25T08:52:10.318Z,97913.69
2022-11-25T08:54:38.614Z,97917.09
2022-11-25T08:57:06.826Z,97909.31
2022-11-25T08:59:35.497Z,97894.56
2022-11-25T09:02:04.182Z,97912.69
2022-11-25T09:04:34.153Z,97913.53
2022-11-25T09:07:02.793Z,97909.16
2022-11-25T09:09:30.960Z,97906.59
2022-11-25T09:11:59.248Z,97913.47
2022-11-25T09:14:27.501Z,97906.53
2022-11-25T09:16:57.165Z,97915.22
2022-11-25T09:19:25.293Z,97907.38
2022-11-25T09:21:55.153Z,97903.06
2022-11-25T09:24:23.321Z,97900.44
2022-11-25T09:26:51.475Z,97900.41
2022-11-25T09:29:19.632Z,97893.41
2022-11-25T09:31:53.010Z,97895.09
2022-11-25T09:34:22.768Z,97898.50
2022-11-25T09:36:51.736Z,97882.03
2022-11-25T09:39:21.372Z,97901.81
2022-11-25T09:42:26.257Z,97782.53
2022-11-25T09:45:25.139Z,97893.84
2022-11-25T09:48:00.577Z,97721.06
2022-11-25T09:50:40.292Z,97885.00
2022-11-25T09:53:19.718Z,97881.41
2022-11-25T09:55:53.990Z,97861.53
2022-11-25T09:58:33.812Z,97840.78
2022-11-25T10:01:05.513Z,97867.44
2022-11-25T10:03:40.512Z,97870.81
2022-11-25T10:06:16.157Z,97870.63
2022-11-25T10:08:46.808Z,97859.19
2022-11-25T10:11:28.212Z,97852.91
2022-11-25T10:14:02.383Z,97845.03
2022-11-25T10:16:37.299Z,97847.38
2022-11-25T10:19:17.080Z,97827.34
2022-11-25T10:21:46.449Z,97792.69
2022-11-25T10:24:17.761Z,97785.53
2022-11-25T10:26:54.857Z,97837.19
2022-11-25T10:29:28.676Z,97813.78
2022-11-25T10:32:06.412Z,97804.19
2022-11-25T10:34:40.425Z,97824.94
2022-11-25T10:37:18.265Z,97831.06
2022-11-25T10:39:46.471Z,97793.13
2022-11-25T10:42:22.259Z,97821.41
2022-11-25T10:44:50.507Z,97818.66
2022-11-25T10:47:33.077Z,97822.81
2022-11-25T10:50:09.912Z,97802.78
2022-11-25T10:52:42.896Z,97812.25
2022-11-25T10:55:14.972Z,97788.81
2022-11-25T10:57:44.712Z,97804.19
2022-11-25T11:00:29.576Z,97802.16
2022-11-25T11:02:58.536Z,97811.34
2022-11-25T11:05:29.884Z,97800.53
2022-11-25T11:08:18.952Z,97803.69
2022-11-25T11:10:48.782Z,97749.13
2022-11-25T11:13:26.104Z,97689.72
2022-11-25T11:15:55.408Z,97790.75
2022-11-25T11:18:28.199Z,97793.28
2022-11-25T11:20:58.137Z,97749.38
2022-11-25T11:23:27.118Z,97781.88
2022-11-25T11:26:01.118Z,97764.72
2022-11-25T11:28:39.635Z,97692.34
2022-11-25T11:31:17.579Z,97778.16
2022-11-25T11:33:59.404Z,97788.44
2022-11-25T11:36:39.927Z,97787.19
2022-11-25T11:39:36.678Z,97722.41
2022-11-25T11:42:13.860Z,97798.03
2022-11-25T11:44:57.646Z,97793.34
2022-11-25T11:47:34.370Z,97790.16
2022-11-25T11:50:18.727Z,97786.97
2022-11-25T11:52:58.032Z,97789.06
2022-11-25T11:55:40.971Z,97784.69
2022-11-25T11:58:20.796Z,97786.78
2022-11-25T12:00:58.949Z,97780.19
2022-11-25T12:03:30.946Z,97781.41
2022-11-25T12:06:04.602Z,97784.09
2022-11-25T12:08:39.491Z,97776.06
2022-11-25T12:11:13.920Z,97779.13
2022-11-25T12:13:48.423Z,97782.66
2022-11-25T12:16:26.084Z,97690.09
2022-11-25T12:18:58.011Z,97771.59
2022-11-25T12:21:41.787Z,97766.66
2022-11-25T12:24:19.808Z,97622.41
2022-11-25T12:26:55.518Z,97756.44
2022-11-25T12:29:32.792Z,97763.22
2022-11-25T12:32:17.068Z,97769.00
2022-11-25T12:34:52.820Z,97742.91
2022-11-25T12:37:31.795Z,97754.16
2022-11-25T12:40:06.335Z,97764.25
2022-11-25T12:42:38.156Z,97747.97
2022-11-25T12:45:13.476Z,97762.03
2022-11-25T12:47:44.033Z,97744.84
2022-11-25T12:50:17.502Z,97767.34
2022-11-25T12:52:54.818Z,97761.28
2022-11-25T12:55:24.102Z,97754.63
2022-11-25T12:58:25.301Z,97754.69
2022-11-25T13:01:27.176Z,97752.13
2022-11-25T13:04:33.723Z,97729.34
2022-11-25T13:07:21.778Z,97738.38
2022-11-25T13:10:15.612Z,97736.31
2022-11-25T13:12:56.063Z,97734.97
2022-11-25T13:15:29.892Z,97728.91
2022-11-25T13:18:02.225Z,97692.75
2022-11-25T13:20:43.619Z,97628.31
2022-11-25T13:23:24.753Z,97633.84
2022-11-25T13:25:54.568Z,97720.84
2022-11-25T13:28:32.743Z,97731.59
2022-11-25T13:31:20.247Z,97732.16
2022-11-25T13:34:09.173Z,97728.72
2022-11-25T13:36:49.733Z,97727.00
2022-11-25T13:39:19.283Z,97743.34
2022-11-25T13:41:49.932Z,97748.84
2022-11-25T13:44:29.821Z,97741.38
2022-11-25T13:46:59.716Z,97750.78
2022-11-25T13:49:32.712Z,97738.66
2022-11-25T13:52:07.427Z,97763.28
2022-11-25T13:54:40.514Z,97765.22
2022-11-25T13:57:36.558Z,97759.22
2022-11-25T14:00:09.238Z,97761.66
2022-11-25T14:02:44.972Z,97690.88
2022-11-25T14:05:38.257Z,97758.19
2022-11-25T14:08:20.464Z,97760.03
2022-11-25T14:10:59.958Z,97760.13
2022-11-25T14:13:55.807Z,97764.53
2022-11-25T14:16:43.752Z,97761.88
2022-11-25T14:19:51.147Z,97759.44
2022-11-25T14:22:41.367Z,97766.19
2022-11-25T14:25:20.844Z,97760.59
2022-11-25T14:27:58.340Z,97763.78
2022-11-25T14:30:29.823Z,97765.94
2022-11-25T14:33:02.631Z,97775.84
2022-11-25T14:35:40.077Z,97753.53
2022-11-25T14:38:17.553Z,97782.38
2022-11-25T14:40:55.133Z,97778.19
2022-11-25T14:43:26.317Z,97777.50
2022-11-25T14:46:14.181Z,97782.09
2022-11-25T14:48:42.951Z,97785.69
2022-11-25T14:51:13.854Z,97784.06
2022-11-25T14:53:48.189Z,97785.13
2022-11-25T14:56:24.151Z,97759.34
2022-11-25T14:58:54.683Z,97768.03
2022-11-25T15:01:24.848Z,97653.44
2022-11-25T15:04:03.015Z,97607.00
2022-11-25T15:06:36.273Z,97767.44
2022-11-25T15:09:05.320Z,97787.38
2022-11-25T15:11:36.391Z,97768.44
2022-11-25T15:14:06.675Z,97787.47
2022-11-25T15:16:37.858Z,97781.47
2022-11-25T15:19:08.000Z,97790.19
2022-11-25T15:22:00.092Z,97752.28
2022-11-25T15:24:29.290Z,97798.97
2022-11-25T15:27:01.676Z,97803.41
2022-11-25T15:29:31.753Z,97798.19
2022-11-25T15:32:01.575Z,97794.75
2022-11-25T15:34:31.115Z,97776.66
2022-11-25T15:37:03.199Z,97794.00
2022-11-25T15:39:31.534Z,97791.44
2022-11-25T15:42:09.348Z,97631.81
2022-11-25T15:44:40.277Z,97796.66
2022-11-25T15:47:17.273Z,97788.06
2022-11-25T15:49:50.273Z,97813.16
2022-11-25T15:52:21.552Z,97717.38
2022-11-25T15:54:51.570Z,97808.03
2022-11-25T15:57:24.651Z,97818.41
2022-11-25T16:00:14.729Z,97711.34
2022-11-25T16:02:53.023Z,97852.22
2022-11-25T16:05:33.139Z,97802.06
2022-11-25T16:08:28.972Z,97832.34
2022-11-25T16:10:59.527Z,97830.59
2022-11-25T16:13:34.626Z,97851.41
2022-11-25T16:16:14.456Z,97638.88
2022-11-25T16:18:45.847Z,97798.63
2022-11-25T16:21:16.962Z,97821.94
2022-11-25T16:23:48.991Z,97809.88
2022-11-25T16:26:19.898Z,97810.69
2022-11-25T16:28:59.384Z,97817.63
2022-11-25T16:31:28.744Z,97827.13
2022-11-25T16:34:10.977Z,97836.66
2022-11-25T16:36:39.205Z,97834.94
2022-11-25T16:39:07.407Z,97832.34
2022-11-25T16:41:37.369Z,97836.66
2022-11-25T16:44:18.330Z,97841.00
2022-11-25T16:46:46.626Z,97796.06
2022-11-25T16:49:15.925Z,97674.25
2022-11-25T16:51:44.106Z,97847.91
2022-11-25T16:54:12.643Z,97844.44
2022-11-25T16:56:43.254Z,97772.72
2022-11-25T16:59:18.567Z,97829.75
2022-11-25T17:01:47.818Z,97851.34
2022-11-25T17:04:16.980Z,97852.22
2022-11-25T17:07:03.617Z,97849.63
2022-11-25T17:09:33.588Z,97850.50
2022-11-25T17:12:02.380Z,97853.09
2022-11-25T17:14:34.893Z,97846.19
2022-11-25T17:17:06.865Z,97854.81
2022-11-25T17:19:35.380Z,97847.06
2022-11-25T17:22:04.071Z,97853.06
2022-11-25T17:24:32.328Z,97842.72
2022-11-25T17:27:04.163Z,97862.59
2022-11-25T17:29:37.018Z,97841.84
2022-11-25T17:32:06.623Z,97861.75
2022-11-25T17:34:38.143Z,97866.06
2022-11-25T17:37:14.769Z,97819.44
2022-11-25T17:39:43.519Z,97861.81
2022-11-25T17:42:15.438Z,97882.56
2022-11-25T17:44:51.233Z,97862.69
2022-11-25T17:47:21.360Z,97873.94
2022-11-25T17:49:49.655Z,97882.53
2022-11-25T17:52:17.842Z,97894.66
2022-11-25T17:54:46.031Z,97893.78
2022-11-25T17:57:18.751Z,97893.78
2022-11-25T17:59:48.791Z,97906.78
2022-11-25T18:02:19.818Z,97912.84
2022-11-25T18:04:48.130Z,97909.38
2022-11-25T18:07:16.530Z,97905.06
2022-11-25T18:09:45.683Z,97904.19
2022-11-25T18:12:18.419Z,97926.69
2022-11-25T18:14:48.276Z,97907.66
2022-11-25T18:17:19.075Z,97918.91
2022-11-25T18:19:54.534Z,97866.16
2022-11-25T18:22:25.124Z,97923.25
2022-11-25T18:24:54.309Z,97922.38
2022-11-25T18:27:27.039Z,97930.16
2022-11-25T18:29:57.589Z,97915.47
2022-11-25T18:32:26.703Z,97926.72
2022-11-25T18:34:54.959Z,97944.88
2022-11-25T18:37:23.891Z,97953.56
2022-11-25T18:39:52.132Z,97949.22
2022-11-25T18:42:25.928Z,97928.47
2022-11-25T18:44:54.938Z,97948.34
2022-11-25T18:47:25.188Z,97958.75
2022-11-25T18:49:56.129Z,97932.78
2022-11-25T18:52:24.779Z,97950.97
2022-11-25T18:54:53.037Z,97950.97
2022-11-25T18:57:21.641Z,97933.66
2022-11-25T19:00:16.945Z,97951.81
2022-11-25T19:02:40.109Z,97913.75
2022-11-25T19:05:17.988Z,97955.28
2022-11-25T19:07:47.093Z,97963.06
2022-11-25T19:10:16.383Z,97961.34
2022-11-25T19:12:47.669Z,97966.53
2022-11-25T19:15:18.139Z,97966.53
2022-11-25T19:17:49.769Z,97969.16
2022-11-25T19:20:20.601Z,97970.84
2022-11-25T19:22:49.237Z,97949.19
2022-11-25T19:25:17.703Z,97977.78
2022-11-25T19:27:49.724Z,97976.06
2022-11-25T19:30:19.314Z,97975.19
2022-11-25T19:32:51.928Z,97984.69
2022-11-25T19:35:26.027Z,97988.16
2022-11-25T19:37:54.134Z,97935.34
2022-11-25T19:40:23.093Z,97967.38
2022-11-25T19:42:51.427Z,97987.25
2022-11-25T19:45:21.898Z,97978.59
2022-11-25T19:47:53.237Z,98006.31
2022-11-25T19:50:23.584Z,97970.81
2022-11-25T19:52:51.983Z,98008.91
2022-11-25T19:55:23.396Z,97951.75
2022-11-25T19:57:53.019Z,97908.47
2022-11-25T20:00:22.992Z,98021.84
2022-11-25T20:02:54.958Z,97938.72
2022-11-25T20:05:25.518Z,98027.06
2022-11-25T20:07:53.823Z,98027.91
2022-11-25T20:10:24.205Z,98026.19
2022-11-25T20:12:53.444Z,98032.25
2022-11-25T20:15:22.250Z,98039.16
2022-11-25T20:17:54.643Z,97657.56
2022-11-25T20:20:27.776Z,98042.63
2022-11-25T20:22:59.009Z,98028.78
2022-11-25T20:25:28.546Z,98034.81
2022-11-25T20:27:56.760Z,98016.63
2022-11-25T20:30:28.066Z,98044.31
2022-11-25T20:32:57.687Z,98041.69
2022-11-25T20:35:27.321Z,98021.78
2022-11-25T20:37:58.169Z,98021.75
2022-11-25T20:40:33.412Z,98004.41
2022-11-25T20:43:01.716Z,98038.19
2022-11-25T20:45:30.293Z,98054.63
2022-11-25T20:47:59.980Z,98093.34
2022-11-25T20:50:31.626Z,98055.47
2022-11-25T20:52:59.807Z,98051.97
2022-11-25T20:55:28.239Z,98031.19
2022-11-25T20:57:56.570Z,98051.94
2022-11-25T21:00:26.769Z,98033.69
2022-11-25T21:02:57.419Z,98067.47
2022-11-25T21:05:28.655Z,98063.97
2022-11-25T21:07:57.013Z,98064.81
2022-11-25T21:10:28.812Z,98054.38
2022-11-25T21:12:57.564Z,98066.50
2022-11-25T21:15:29.371Z,98071.66
2022-11-25T21:17:59.719Z,98075.13
2022-11-25T21:20:29.439Z,98077.69
2022-11-25T21:23:02.259Z,98064.69
2022-11-25T21:25:30.568Z,98071.63
2022-11-25T21:27:58.807Z,98082.91
2022-11-25T21:30:30.874Z,98082.88
2022-11-25T21:33:00.949Z,98078.47
2022-11-25T21:35:33.253Z,98078.47
2022-11-25T21:38:04.132Z,98084.50
2022-11-25T21:40:36.213Z,98083.59
2022-11-25T21:43:05.135Z,98085.28
2022-11-25T21:45:33.830Z,98076.56
2022-11-25T21:48:02.462Z,98096.56
2022-11-25T21:50:32.595Z,98047.94
2022-11-25T21:53:01.181Z,98096.50
2022-11-25T21:55:29.340Z,98094.78
2022-11-25T21:57:57.440Z,98104.28
2022-11-25T22:00:27.658Z,98106.81
2022-11-25T22:02:55.898Z,98111.09
2022-11-25T22:05:26.796Z,98120.53
2022-11-25T22:07:57.151Z,98121.44
2022-11-25T22:10:25.723Z,98115.31
2022-11-25T22:12:53.912Z,98104.88
2022-11-25T22:15:24.181Z,98082.31
2022-11-25T22:17:56.987Z,98124.84
2022-11-25T22:20:33.359Z,98097.94
2022-11-25T22:23:03.285Z,98124.72
2022-11-25T22:25:33.996Z,98118.63
2022-11-25T22:28:02.207Z,98096.91
2022-11-25T22:30:30.732Z,98127.31
2022-11-25T22:33:02.195Z,98111.63
2022-11-25T22:35:30.709Z,98108.09
2022-11-25T22:37:58.900Z,98112.53
2022-11-25T22:40:28.472Z,98133.31
2022-11-25T22:42:57.571Z,98140.16
2022-11-25T22:45:31.291Z,98143.59
2022-11-25T22:48:00.801Z,98140.88
2022-11-25T22:50:36.967Z,98145.25
2022-11-25T22:53:13.422Z,98143.59
2022-11-25T22:55:43.619Z,98143.53
2022-11-25T22:58:13.052Z,98142.59
2022-11-25T23:00:44.958Z,98130.38
2022-11-25T23:03:18.774Z,98159.75
2022-11-25T23:05:47.764Z,98132.97
2022-11-25T23:08:18.141Z,98154.59
2022-11-25T23:10:48.765Z,98161.41
2022-11-25T23:13:18.806Z,98115.66
2022-11-25T23:15:50.956Z,98151.09
2022-11-25T23:18:24.171Z,98151.81
2022-11-25T23:20:52.403Z,98153.47
2022-11-25T23:23:23.023Z,98165.53
2022-11-25T23:25:52.852Z,98160.19
2022-11-25T23:28:21.502Z,98167.88
2022-11-25T23:30:53.034Z,98054.22
2022-11-25T23:33:28.655Z,98160.94
2022-11-25T23:35:57.479Z,98166.13
2022-11-25T23:38:28.914Z,98161.81
2022-11-25T23:40:58.463Z,98164.66
2022-11-25T23:43:26.640Z,98166.28
2022-11-25T23:45:57.091Z,98154.09
2022-11-25T23:48:28.961Z,98170.47
2022-11-25T23:50:59.304Z,98165.19
2022-11-25T23:53:30.757Z,98040.06
2022-11-25T23:56:00.611Z,98166.84
2022-11-25T23:58:29.008Z,98171.22
